This is the latest recevied weather packets stored in our database for station/object BMCB-37. If no packets are shown the sender has not sent any weather packets the latest 10 day(s).
| Time | Temp. | Humidity | Pressure | Rain* | Wind** | Luminosity | Snow |
|---|---|---|---|---|---|---|---|
| 1777831816 | 15° C | 92% | 1014.4 hPa | 0 mm | - | 10 W/m² | - |
| 1777830616 | 15.56° C | 89% | 1014.3 hPa | 0 mm | - | 4 W/m² | - |
| 1777829434 | 15.56° C | 88% | 1014.2 hPa | 0 mm | - | 30 W/m² | - |
| 1777812621 | 13.89° C | 98% | 1015.1 hPa | 1.52 mm | - | 184 W/m² | - |
| 1777810834 | 13.89° C | 97% | 1015 hPa | 1.52 mm | - | 148 W/m² | - |
| 1777805424 | 14.44° C | 95% | 1015.1 hPa | 2.54 mm | - | 194 W/m² | - |
| 1777804222 | 15° C | 93% | 1015.2 hPa | 1.52 mm | - | 70 W/m² | - |
| 1777791024 | 15.56° C | 87% | 1014 hPa | 0 mm | - | 120 W/m² | - |
| 1777787419 | 13.89° C | 97% | 1014.2 hPa | 0 mm | - | 78 W/m² | - |
| 1777774825 | 12.78° C | 10% | 1014.6 hPa | 0 mm | - | - | - |
| 1777773151 | 12.78° C | 10% | 1015 hPa | 0 mm | - | - | - |
| 1777761021 | 14.44° C | 98% | 1016.3 hPa | 0 mm | - | 0 W/m² | - |
| 1777759824 | 14.44° C | 98% | 1016.4 hPa | 0 mm | - | 0 W/m² | - |
| 1777758021 | 15° C | 97% | 1016.4 hPa | 0 mm | - | 0 W/m² | - |
| 1777755621 | 15° C | 93% | 1016.5 hPa | 0 mm | - | 0 W/m² | - |
| 1777755040 | 15° C | 95% | 1016.4 hPa | 0 mm | - | 0 W/m² | - |
| 1777750221 | 18.33° C | 77% | 1016.4 hPa | 0.51 mm | - | 0 W/m² | - |
| 1777743023 | 22.78° C | 60% | 1016.2 hPa | 0 mm | - | 72 W/m² | - |
| 1777741219 | 23.89° C | 54% | 1016.3 hPa | 0 mm | - | 200 W/m² | - |
| 1777737639 | 23.89° C | 54% | 1017.2 hPa | 0 mm | - | 338 W/m² | - |
| 1777731635 | 23.33° C | 54% | 1018.9 hPa | 0 mm | - | 530 W/m² | - |
| 1777725623 | 21.67° C | 60% | 1020.2 hPa | 0 mm | - | 364 W/m² | - |
| 1777720236 | 21.67° C | 64% | 1020.9 hPa | 0 mm | - | 388 W/m² | - |
| 1777702822 | 13.89° C | 81% | 1022.6 hPa | 0 mm | - | 64 W/m² | - |
| 1777692039 | 10° C | 81% | 1022.6 hPa | 0 mm | - | 0 W/m² | - |
* Rain latest hour (hover to see other rain measurements)
** Current wind speed in m/s (hover to see current wind gust speed)